Time;durP1;ratioP1;P1;durP2;ratioP2;P2;SDS_P1;SDS_P2;PMS_P1;PMS_P2;Temp;Humidity;BMP_temperature;BMP_pressure;BME280_temperature;BME280_humidity;BME280_pressure;Samples;Min_cycle;Max_cycle;Signal;HPM_P1;HPM_P2
2022/09/25 00:00:14;;;;;;;;;;;;;;;15.87;53.58;100470.22;5011448;28;19957;-41
2022/09/25 00:02:40;;;;;;;;;;;;;;;15.82;53.37;100461.50;5011445;28;19914;-41
2022/09/25 00:05:05;;;;;;;;;;;;;;;15.82;53.53;100472.16;5013428;28;19964;-40
2022/09/25 00:07:30;;;;;;;;;;;;;;;15.77;53.78;100470.50;5011659;28;19924;-40
2022/09/25 00:09:56;;;;;;;;;;;;;;;15.75;53.73;100469.72;5009202;28;20016;-40
2022/09/25 00:12:21;;;;;;;;;;;;;;;15.71;53.81;100468.06;5008710;28;20035;-40
2022/09/25 00:14:50;;;;;;;;;;;;;;;15.72;53.91;100469.81;4988573;28;20289;-40
2022/09/25 00:17:16;;;;;;;;;;;;;;;15.70;53.61;100473.44;4994169;28;19924;-40
2022/09/25 00:19:50;;;;;;;;;;;;;;;15.69;53.77;100466.38;5013366;28;19917;-41
2022/09/25 00:22:17;;;;;;;;;;;;;;;15.65;53.69;100470.94;5012614;28;19920;-40
2022/09/25 00:24:43;;;;;;;;;;;;;;;15.62;53.54;100468.38;4978976;28;19992;-41
2022/09/25 00:27:08;;;;;;;;;;;;;;;15.59;53.85;100465.81;5014212;28;19959;-41
2022/09/25 00:29:35;;;;;;;;;;;;;;;15.58;53.68;100469.41;5015590;28;19926;-40
2022/09/25 00:32:03;;;;;;;;;;;;;;;15.58;53.89;100464.09;4983142;28;20349;-42
2022/09/25 00:34:32;;;;;;;;;;;;;;;15.56;53.90;100460.59;5014195;28;19939;-41
2022/09/25 00:36:57;;;;;;;;;;;;;;;15.51;53.76;100458.97;5015604;28;19921;-40
2022/09/25 00:39:22;;;;;;;;;;;;;;;15.47;53.99;100461.78;5016280;28;20000;-39
2022/09/25 00:41:48;;;;;;;;;;;;;;;15.49;53.92;100451.97;4998344;28;20025;-41
2022/09/25 00:44:38;;;;;;;;;;;;;;;15.46;53.93;100454.72;5015254;28;19921;-40
2022/09/25 00:47:03;;;;;;;;;;;;;;;15.43;54.10;100450.38;5009986;28;19917;-38
2022/09/25 00:49:28;;;;;;;;;;;;;;;15.42;53.99;100453.97;4998250;28;19921;-41
2022/09/25 00:51:58;;;;;;;;;;;;;;;15.40;54.04;100453.13;4998310;28;19917;-39
2022/09/25 00:54:42;;;;;;;;;;;;;;;15.38;54.04;100457.66;5014780;28;19924;-41
2022/09/25 00:57:08;;;;;;;;;;;;;;;15.36;54.05;100446.19;5014905;28;20024;-39
2022/09/25 00:59:37;;;;;;;;;;;;;;;15.36;54.04;100457.69;5006274;28;19980;-38
2022/09/25 01:02:02;;;;;;;;;;;;;;;15.32;54.16;100453.41;4997566;28;19920;-38
2022/09/25 01:04:28;;;;;;;;;;;;;;;15.32;54.12;100455.19;4997440;28;19925;-40
2022/09/25 01:06:55;;;;;;;;;;;;;;;15.29;54.18;100455.28;4997745;28;20008;-41
2022/09/25 01:09:20;;;;;;;;;;;;;;;15.24;54.30;100450.97;5015506;28;19918;-42
2022/09/25 01:11:47;;;;;;;;;;;;;;;15.24;54.18;100455.44;5015243;28;19924;-39
2022/09/25 01:14:16;;;;;;;;;;;;;;;15.22;54.12;100458.16;4998862;28;19914;-39
2022/09/25 01:16:46;;;;;;;;;;;;;;;15.20;54.34;100449.34;4978079;28;19925;-39
2022/09/25 01:19:21;;;;;;;;;;;;;;;15.19;54.30;100446.72;4999414;28;19971;-39
2022/09/25 01:22:10;;;;;;;;;;;;;;;15.17;54.19;100441.47;4998255;28;20382;-41
2022/09/25 01:24:43;;;;;;;;;;;;;;;15.16;54.26;100441.50;5014748;28;19940;-39
2022/09/25 01:27:44;;;;;;;;;;;;;;;15.14;54.43;100438.94;4998573;28;20384;-39
2022/09/25 01:30:09;;;;;;;;;;;;;;;15.10;54.36;100440.81;4954605;28;20009;-40
2022/09/25 01:32:48;;;;;;;;;;;;;;;15.07;54.35;100443.56;5003917;28;19963;-41
2022/09/25 01:35:32;;;;;;;;;;;;;;;15.06;54.35;100440.94;5016169;28;19917;-40
2022/09/25 01:37:59;;;;;;;;;;;;;;;15.01;54.28;100439.31;5013215;28;19964;-42
2022/09/25 01:40:43;;;;;;;;;;;;;;;14.99;54.36;100446.47;4997313;28;20029;-39
2022/09/25 01:43:30;;;;;;;;;;;;;;;14.94;54.65;100445.72;5014822;28;19914;-38
2022/09/25 01:45:56;;;;;;;;;;;;;;;14.93;54.59;100441.34;4997625;28;20003;-40
2022/09/25 01:48:25;;;;;;;;;;;;;;;14.94;54.64;100456.34;5016198;28;19925;-41
2022/09/25 01:51:10;;;;;;;;;;;;;;;14.93;54.62;100451.06;5015671;28;19980;-40
2022/09/25 01:53:43;;;;;;;;;;;;;;;14.90;54.69;100448.53;5015435;28;19913;-40
2022/09/25 01:56:18;;;;;;;;;;;;;;;14.87;54.88;100446.81;5003399;28;19948;-41
2022/09/25 01:58:53;;;;;;;;;;;;;;;14.86;54.94;100448.63;5009673;28;19925;-41
2022/09/25 02:01:21;;;;;;;;;;;;;;;14.85;54.83;100448.66;4995961;28;19976;-40
2022/09/25 02:03:48;;;;;;;;;;;;;;;14.84;54.87;100447.78;4997238;28;20011;-40
2022/09/25 02:06:16;;;;;;;;;;;;;;;14.85;54.75;100446.00;5013850;28;19933;-40
2022/09/25 02:08:43;;;;;;;;;;;;;;;14.87;54.82;100447.69;5013636;28;19922;-41
2022/09/25 02:11:09;;;;;;;;;;;;;;;14.82;54.82;100444.31;5013965;28;19924;-40
2022/09/25 02:13:38;;;;;;;;;;;;;;;14.83;55.05;100445.19;4997749;28;19917;-40
2022/09/25 02:16:06;;;;;;;;;;;;;;;14.81;55.13;100444.38;4998644;28;20016;-42
2022/09/25 02:21:37;;;;;;;;;;;;;;;14.81;55.14;100452.34;5017191;28;19925;-41
2022/09/25 02:24:04;;;;;;;;;;;;;;;14.75;55.14;100448.91;5011121;28;19917;-40
2022/09/25 02:26:30;;;;;;;;;;;;;;;14.76;55.11;100449.78;4997796;28;19980;-40
2022/09/25 02:28:55;;;;;;;;;;;;;;;14.77;55.14;100448.88;5014667;28;19914;-40
2022/09/25 02:31:22;;;;;;;;;;;;;;;14.80;54.96;100443.50;4995470;28;21377;-40
2022/09/25 02:33:48;;;;;;;;;;;;;;;14.78;55.22;100447.13;4997691;28;20336;-40
2022/09/25 02:36:19;;;;;;;;;;;;;;;14.77;55.21;100440.94;4996195;28;20339;-41
2022/09/25 02:38:45;;;;;;;;;;;;;;;14.74;55.07;100433.91;5021553;28;19971;-41
2022/09/25 02:41:29;;;;;;;;;;;;;;;14.75;55.31;100427.66;4999030;28;19917;-40
2022/09/25 02:44:01;;;;;;;;;;;;;;;14.77;55.16;100437.38;5015133;28;19913;-40
2022/09/25 02:46:39;;;;;;;;;;;;;;;14.74;55.29;100441.84;4996677;28;19922;-41
2022/09/25 02:49:07;;;;;;;;;;;;;;;14.73;55.30;100452.53;5014148;28;19967;-41
2022/09/25 02:52:00;;;;;;;;;;;;;;;14.72;55.25;100454.31;4996293;28;19917;-40
2022/09/25 02:54:33;;;;;;;;;;;;;;;14.71;55.58;100452.56;5013247;28;19948;-43
2022/09/25 02:57:07;;;;;;;;;;;;;;;14.70;55.49;100450.84;4990831;28;19932;-41
2022/09/25 02:59:35;;;;;;;;;;;;;;;14.68;55.49;100452.69;4999427;28;19949;-40
2022/09/25 03:02:02;;;;;;;;;;;;;;;14.68;55.42;100455.34;5000179;28;20285;-40
2022/09/25 03:08:36;;;;;;;;;;;;;;;14.62;55.63;100448.44;5010785;28;20341;-40
2022/09/25 03:10:15;;;;;;;;;;;;;;;14.62;55.63;100450.19;5013050;28;20308;-39
2022/09/25 03:12:44;;;;;;;;;;;;;;;14.62;55.83;100450.19;5014478;28;19922;-39
2022/09/25 03:15:10;;;;;;;;;;;;;;;14.63;55.61;100441.31;5013988;28;19918;-41
2022/09/25 03:17:36;;;;;;;;;;;;;;;14.64;55.50;100443.03;5013035;28;19971;-42
2022/09/25 03:20:01;;;;;;;;;;;;;;;14.63;55.57;100443.97;5027206;22;19925;-37
2022/09/25 03:22:26;;;;;;;;;;;;;;;14.63;55.65;100436.00;5019035;28;19929;-36
2022/09/25 03:24:51;;;;;;;;;;;;;;;14.61;55.65;100440.50;5000257;28;19936;-37
2022/09/25 03:27:17;;;;;;;;;;;;;;;14.64;55.72;100440.38;5022614;28;19924;-38
2022/09/25 03:29:43;;;;;;;;;;;;;;;14.65;55.61;100449.22;5013439;28;19914;-37
2022/09/25 03:32:12;;;;;;;;;;;;;;;14.62;55.74;100450.19;5012894;28;19944;-37
2022/09/25 03:34:41;;;;;;;;;;;;;;;14.64;55.80;100451.00;5010928;28;19980;-37
2022/09/25 03:37:06;;;;;;;;;;;;;;;14.62;55.85;100452.84;5013830;28;19929;-36
2022/09/25 03:39:31;;;;;;;;;;;;;;;14.61;55.89;100449.31;5024356;28;19913;-37
2022/09/25 03:41:57;;;;;;;;;;;;;;;14.62;55.74;100451.09;5030865;28;19913;-37
2022/09/25 03:44:22;;;;;;;;;;;;;;;14.60;55.93;100459.97;4990423;28;20295;-37
2022/09/25 03:46:47;;;;;;;;;;;;;;;14.60;55.91;100452.91;5004969;28;20398;-37
2022/09/25 03:49:12;;;;;;;;;;;;;;;14.60;56.04;100458.19;5012855;28;20397;-37
2022/09/25 03:51:38;;;;;;;;;;;;;;;14.59;55.83;100452.94;5020156;28;20358;-37
2022/09/25 03:54:04;;;;;;;;;;;;;;;14.61;55.70;100446.66;5012513;28;20400;-38
2022/09/25 03:56:29;;;;;;;;;;;;;;;14.62;55.84;100450.19;5011237;28;19921;-37
2022/09/25 03:58:54;;;;;;;;;;;;;;;14.61;55.81;100451.13;5004344;28;19936;-37
2022/09/25 04:01:22;;;;;;;;;;;;;;;14.58;55.90;100445.91;5011825;28;19918;-37
2022/09/25 04:03:47;;;;;;;;;;;;;;;14.59;55.82;100437.91;5010024;28;19928;-38
2022/09/25 04:06:14;;;;;;;;;;;;;;;14.59;55.78;100437.91;5010504;28;20335;-37
2022/09/25 04:08:39;;;;;;;;;;;;;;;14.62;55.75;100434.28;5016602;28;19961;-37
2022/09/25 04:11:04;;;;;;;;;;;;;;;14.60;55.96;100431.66;5016317;28;20011;-38
2022/09/25 04:13:30;;;;;;;;;;;;;;;14.58;55.98;100433.47;5012415;28;19921;-37
2022/09/25 04:15:56;;;;;;;;;;;;;;;14.63;55.93;100434.22;5011152;28;19929;-37
2022/09/25 04:18:22;;;;;;;;;;;;;;;14.58;55.94;100437.94;5012301;28;19918;-37
2022/09/25 04:20:47;;;;;;;;;;;;;;;14.59;56.04;100434.34;5017598;28;19928;-37
2022/09/25 04:23:13;;;;;;;;;;;;;;;14.57;56.01;100434.41;5012074;28;19917;-38
2022/09/25 04:25:38;;;;;;;;;;;;;;;14.61;55.89;100430.75;5011488;28;19909;-37
2022/09/25 04:28:09;;;;;;;;;;;;;;;14.59;55.91;100440.56;5017363;28;20016;-38
2022/09/25 04:30:36;;;;;;;;;;;;;;;14.58;56.06;100440.59;4993016;28;19917;-37
2022/09/25 04:35:45;;;;;;;;;;;;;;;14.60;56.06;100441.41;5021874;28;20389;-36
2022/09/25 04:38:10;;;;;;;;;;;;;;;14.61;56.25;100443.16;5011877;28;19918;-38
2022/09/25 04:40:35;;;;;;;;;;;;;;;14.58;56.36;100445.91;5014760;28;19921;-37
2022/09/25 04:43:02;;;;;;;;;;;;;;;14.60;56.06;100446.72;5032069;28;19932;-37
2022/09/25 04:45:27;;;;;;;;;;;;;;;14.59;56.20;100437.00;5021510;28;20014;-37
2022/09/25 04:47:53;;;;;;;;;;;;;;;14.62;56.15;100442.22;5009511;28;20386;-36
2022/09/25 04:50:19;;;;;;;;;;;;;;;14.61;55.97;100443.16;5011200;28;19917;-37
2022/09/25 04:52:44;;;;;;;;;;;;;;;14.59;55.98;100443.19;5017105;28;19921;-37
2022/09/25 04:55:09;;;;;;;;;;;;;;;14.60;56.05;100444.06;5020023;28;19917;-38
2022/09/25 04:57:34;;;;;;;;;;;;;;;14.60;56.28;100438.75;5005732;28;19921;-38
2022/09/25 05:00:00;;;;;;;;;;;;;;;14.59;56.13;100443.19;5010522;28;19918;-38
2022/09/25 05:02:26;;;;;;;;;;;;;;;14.60;56.36;100450.25;5026719;28;19971;-36
2022/09/25 05:04:52;;;;;;;;;;;;;;;14.59;56.18;100445.84;5012420;28;19917;-35
2022/09/25 05:07:17;;;;;;;;;;;;;;;14.59;56.39;100451.16;5012139;28;19984;-36
2022/09/25 05:09:42;;;;;;;;;;;;;;;14.60;56.26;100449.34;5012325;28;20239;-35
2022/09/25 05:12:07;;;;;;;;;;;;;;;14.60;56.32;100441.41;5011323;28;20298;-35
2022/09/25 05:14:33;;;;;;;;;;;;;;;14.60;56.34;100444.06;5027063;28;20365;-35
2022/09/25 05:17:00;;;;;;;;;;;;;;;14.58;56.39;100441.44;5013801;28;19936;-35
2022/09/25 05:19:26;;;;;;;;;;;;;;;14.61;56.42;100445.81;5026201;28;19921;-35
2022/09/25 05:24:55;;;;;;;;;;;;;;;14.57;56.59;100439.72;5021157;28;19963;-35
2022/09/25 05:27:21;;;;;;;;;;;;;;;14.56;56.50;100442.41;5022745;28;19925;-35
2022/09/25 05:29:46;;;;;;;;;;;;;;;14.56;56.58;100442.41;4997125;28;19913;-35
2022/09/25 05:32:16;;;;;;;;;;;;;;;14.56;56.61;100439.75;5012855;28;20000;-35
2022/09/25 05:34:41;;;;;;;;;;;;;;;14.57;56.76;100444.16;5008893;28;19921;-35
2022/09/25 05:37:06;;;;;;;;;;;;;;;14.59;56.47;100445.84;5003159;28;19936;-36
2022/09/25 05:39:31;;;;;;;;;;;;;;;14.56;56.60;100439.75;5013182;28;19960;-35
2022/09/25 05:41:57;;;;;;;;;;;;;;;14.63;56.45;100449.28;5012801;28;19930;-36
2022/09/25 05:44:23;;;;;;;;;;;;;;;14.58;56.61;100446.75;5013183;28;19924;-35
2022/09/25 05:46:49;;;;;;;;;;;;;;;14.59;56.60;100444.97;5010236;28;19927;-35
2022/09/25 05:49:14;;;;;;;;;;;;;;;14.59;56.51;100444.97;4996641;28;20000;-35
2022/09/25 05:51:39;;;;;;;;;;;;;;;14.57;56.57;100446.81;5013418;28;19921;-35
2022/09/25 05:54:05;;;;;;;;;;;;;;;14.58;56.60;100446.75;5016065;28;20231;-35
2022/09/25 05:56:30;;;;;;;;;;;;;;;14.58;56.57;100441.44;5014710;28;20389;-35
2022/09/25 05:58:57;;;;;;;;;;;;;;;14.60;56.55;100444.06;5012254;28;19917;-35
2022/09/25 06:01:22;;;;;;;;;;;;;;;14.58;56.65;100440.59;5014686;28;20028;-35
2022/09/25 06:03:47;;;;;;;;;;;;;;;14.60;56.67;100438.75;5012818;28;20017;-35
2022/09/25 06:06:13;;;;;;;;;;;;;;;14.60;56.71;100439.63;5013838;28;20008;-35
2022/09/25 06:08:38;;;;;;;;;;;;;;;14.61;56.64;100440.50;5013603;28;19964;-35
2022/09/25 06:11:04;;;;;;;;;;;;;;;14.59;56.84;100439.66;5017147;28;19959;-36
2022/09/25 06:13:31;;;;;;;;;;;;;;;14.61;56.78;100440.50;5021350;28;19957;-35
2022/09/25 06:15:56;;;;;;;;;;;;;;;14.60;56.76;100439.63;5014142;28;19925;-36
2022/09/25 06:18:21;;;;;;;;;;;;;;;14.58;56.87;100437.94;5013751;28;19918;-35
2022/09/25 06:20:47;;;;;;;;;;;;;;;14.59;57.14;100442.31;5011731;28;20019;-35
2022/09/25 06:23:15;;;;;;;;;;;;;;;14.60;57.25;100444.06;5013025;28;20278;-35
2022/09/25 06:25:40;;;;;;;;;;;;;;;14.62;57.13;100451.09;5012366;28;19917;-35
2022/09/25 06:28:06;;;;;;;;;;;;;;;14.61;57.24;100445.81;5009174;28;19926;-36
2022/09/25 06:30:34;;;;;;;;;;;;;;;14.65;57.36;100454.53;4977712;28;20275;-36
2022/09/25 06:33:06;;;;;;;;;;;;;;;14.61;57.43;100451.97;5012789;28;19984;-36
2022/09/25 06:35:31;;;;;;;;;;;;;;;14.62;57.20;100448.44;5016543;28;19925;-35
2022/09/25 06:37:57;;;;;;;;;;;;;;;14.64;57.41;100448.34;5013042;28;19943;-35
2022/09/25 06:40:23;;;;;;;;;;;;;;;14.64;57.33;100440.38;5013902;28;20378;-35
2022/09/25 06:42:53;;;;;;;;;;;;;;;14.65;57.33;100444.81;5014045;28;19963;-35
2022/09/25 06:45:19;;;;;;;;;;;;;;;14.68;57.15;100442.06;5017189;28;19975;-36
2022/09/25 06:47:47;;;;;;;;;;;;;;;14.66;57.26;100443.88;5017003;28;20011;-35
2022/09/25 06:50:13;;;;;;;;;;;;;;;14.69;56.86;100443.78;5022710;28;19918;-35
2022/09/25 06:55:45;;;;;;;;;;;;;;;14.70;56.85;100445.53;5014750;28;19987;-35
2022/09/25 06:58:13;;;;;;;;;;;;;;;14.70;56.87;100442.88;5009952;28;19953;-36
2022/09/25 07:00:38;;;;;;;;;;;;;;;14.71;56.70;100452.56;5012471;28;19963;-35
2022/09/25 07:05:47;;;;;;;;;;;;;;;14.71;56.57;100449.91;5013243;28;19920;-35
2022/09/25 07:08:13;;;;;;;;;;;;;;;14.76;56.51;100449.78;5018448;28;20299;-35
2022/09/25 07:10:38;;;;;;;;;;;;;;;14.74;56.51;100449.81;5010531;28;19918;-35
2022/09/25 07:13:04;;;;;;;;;;;;;;;14.79;56.54;100454.16;5010081;28;19933;-35
2022/09/25 07:15:29;;;;;;;;;;;;;;;14.78;56.63;100460.38;5020871;28;20409;-35
2022/09/25 07:17:54;;;;;;;;;;;;;;;14.80;56.73;100456.75;5027666;28;19913;-35
2022/09/25 07:20:21;;;;;;;;;;;;;;;14.81;56.69;100466.47;4999923;28;19917;-35
2022/09/25 07:22:46;;;;;;;;;;;;;;;14.82;56.79;100462.03;5011782;28;20426;-35
2022/09/25 07:25:11;;;;;;;;;;;;;;;14.84;56.79;100465.53;5011550;28;20024;-35
2022/09/25 07:27:37;;;;;;;;;;;;;;;14.82;57.07;100464.69;5008662;28;20016;-36
2022/09/25 07:30:03;;;;;;;;;;;;;;;14.85;57.17;100464.59;5010877;28;19925;-35
2022/09/25 07:32:30;;;;;;;;;;;;;;;14.86;57.27;100464.56;5019807;28;20508;-35
2022/09/25 07:34:55;;;;;;;;;;;;;;;14.87;57.06;100462.75;5000424;28;19972;-35
2022/09/25 07:37:21;;;;;;;;;;;;;;;14.87;57.26;100470.72;5015156;28;19921;-36
2022/09/25 07:39:46;;;;;;;;;;;;;;;14.89;57.20;100458.28;5014451;28;19928;-35
2022/09/25 07:42:11;;;;;;;;;;;;;;;14.92;57.29;100462.63;5014575;28;19929;-35
2022/09/25 07:44:36;;;;;;;;;;;;;;;14.92;57.50;100459.97;5011638;28;19917;-35
2022/09/25 07:47:02;;;;;;;;;;;;;;;14.94;57.51;100448.38;4977512;28;20408;-35
2022/09/25 07:49:28;;;;;;;;;;;;;;;14.97;57.34;100447.44;4994267;28;19984;-35
2022/09/25 07:52:05;;;;;;;;;;;;;;;14.97;57.27;100450.94;5011046;28;20000;-36
2022/09/25 07:54:31;;;;;;;;;;;;;;;14.99;57.36;100451.78;5023213;28;20334;-35
2022/09/25 07:56:58;;;;;;;;;;;;;;;15.01;57.10;100444.59;5003775;28;21251;-35
2022/09/25 07:59:23;;;;;;;;;;;;;;;15.04;57.02;100461.38;5008797;28;19921;-35
2022/09/25 08:01:48;;;;;;;;;;;;;;;15.06;57.12;100456.88;5007987;28;19967;-35
2022/09/25 08:04:13;;;;;;;;;;;;;;;15.08;56.91;100457.72;5009923;28;19944;-36
2022/09/25 08:06:38;;;;;;;;;;;;;;;15.08;57.07;100460.38;5024668;28;19963;-35
2022/09/25 08:09:04;;;;;;;;;;;;;;;15.11;57.13;100458.47;5014239;28;19928;-36
2022/09/25 08:11:30;;;;;;;;;;;;;;;15.13;57.25;100458.41;5020049;28;19941;-35
2022/09/25 08:13:55;;;;;;;;;;;;;;;15.14;57.31;100461.03;5025872;28;20298;-35
2022/09/25 08:16:22;;;;;;;;;;;;;;;15.19;57.13;100452.94;5024008;28;19921;-35
2022/09/25 08:18:49;;;;;;;;;;;;;;;15.19;57.06;100449.38;5011547;28;19921;-35
2022/09/25 08:21:18;;;;;;;;;;;;;;;15.22;57.08;100451.94;5010072;28;19925;-37
2022/09/25 08:23:44;;;;;;;;;;;;;;;15.20;57.06;100446.69;5010086;28;19918;-35
2022/09/25 08:26:09;;;;;;;;;;;;;;;15.24;57.03;100444.81;5009529;28;19967;-36
2022/09/25 08:31:37;;;;;;;;;;;;;;;15.29;57.03;100442.88;5008566;28;19956;-35
2022/09/25 08:34:02;;;;;;;;;;;;;;;15.30;57.18;100441.09;5008400;28;20359;-36
2022/09/25 08:36:28;;;;;;;;;;;;;;;15.30;57.17;100438.44;5007807;28;20440;-35
2022/09/25 08:38:57;;;;;;;;;;;;;;;15.34;57.09;100437.41;5008495;28;20461;-35
2022/09/25 08:50:18;;;;;;;;;;;;;;;15.50;57.14;100429.78;5023611;28;19984;-35
2022/09/25 08:52:51;;;;;;;;;;;;;;;15.57;57.24;100436.63;5035608;28;19913;-35
2022/09/25 08:58:23;;;;;;;;;;;;;;;15.67;57.17;100439.00;4996536;28;20381;-36
2022/09/25 09:00:53;;;;;;;;;;;;;;;15.65;60.51;100437.22;5015772;28;19933;-36
2022/09/25 09:03:18;;;;;;;;;;;;;;;15.75;62.46;100443.13;5007256;28;19996;-35
2022/09/25 09:05:45;;;;;;;;;;;;;;;15.77;63.87;100443.94;5007577;28;20374;-35
2022/09/25 09:08:10;;;;;;;;;;;;;;;15.80;64.96;100442.09;4997464;28;19914;-35
2022/09/25 09:11:01;;;;;;;;;;;;;;;15.90;64.64;100435.50;5013092;28;19918;-36
2022/09/25 09:13:40;;;;;;;;;;;;;;;15.87;64.57;100435.66;5009520;28;19925;-35
2022/09/25 09:16:07;;;;;;;;;;;;;;;15.97;64.75;100444.19;4989706;28;20004;-35
2022/09/25 09:18:38;;;;;;;;;;;;;;;16.16;63.81;100449.72;5015740;28;20405;-35
2022/09/25 09:21:09;;;;;;;;;;;;;;;16.16;63.98;100439.06;5009182;28;19918;-37
2022/09/25 09:23:57;;;;;;;;;;;;;;;16.23;64.02;100440.59;5006386;28;19921;-37
2022/09/25 09:26:34;;;;;;;;;;;;;;;16.23;64.01;100440.59;5012526;28;19924;-37
2022/09/25 09:29:27;;;;;;;;;;;;;;;16.36;63.63;100442.78;5009043;28;19918;-37
2022/09/25 09:32:03;;;;;;;;;;;;;;;16.34;63.75;100444.66;5010203;28;19924;-37
2022/09/25 09:34:35;;;;;;;;;;;;;;;16.31;64.02;100442.97;5013340;28;19933;-37
2022/09/25 09:37:14;;;;;;;;;;;;;;;16.42;63.44;100450.56;5008912;28;19922;-37
2022/09/25 09:39:46;;;;;;;;;;;;;;;16.48;63.44;100439.69;5013706;28;20016;-37
2022/09/25 09:42:31;;;;;;;;;;;;;;;16.61;63.02;100441.88;5012305;28;19924;-37
2022/09/25 09:44:57;;;;;;;;;;;;;;;16.71;63.37;100437.06;5017966;28;19952;-37
2022/09/25 09:47:45;;;;;;;;;;;;;;;16.66;63.17;100438.13;5022267;28;19914;-37
2022/09/25 09:50:10;;;;;;;;;;;;;;;16.73;63.28;100429.88;4999626;28;19921;-38
2022/09/25 09:52:37;;;;;;;;;;;;;;;16.87;63.30;100426.69;5014238;28;20249;-37
2022/09/25 09:55:02;;;;;;;;;;;;;;;16.93;63.48;100429.97;5011215;28;19921;-38
2022/09/25 09:57:38;;;;;;;;;;;;;;;17.01;62.19;100426.13;5006872;28;20012;-38
2022/09/25 10:00:22;;;;;;;;;;;;;;;16.89;62.63;100416.81;4993198;28;19922;-37
2022/09/25 10:02:53;;;;;;;;;;;;;;;17.09;62.59;100417.84;5011174;28;19925;-37
2022/09/25 10:08:21;;;;;;;;;;;;;;;17.22;61.87;100413.78;5013380;28;19972;-38
2022/09/25 10:10:48;;;;;;;;;;;;;;;17.33;61.40;100410.66;5018844;28;19921;-38
2022/09/25 10:13:31;;;;;;;;;;;;;;;17.34;61.00;100395.53;4995171;28;19991;-37
2022/09/25 10:19:10;;;;;;;;;;;;;;;17.49;61.15;100405.53;5012712;28;20389;-37
2022/09/25 10:21:40;;;;;;;;;;;;;;;17.52;60.33;100400.09;4992850;28;19922;-37
2022/09/25 10:24:05;;;;;;;;;;;;;;;17.64;60.20;100397.81;4999872;28;19913;-40
2022/09/25 10:26:36;;;;;;;;;;;;;;;17.64;59.87;100395.16;5008363;28;19926;-37
2022/09/25 10:29:03;;;;;;;;;;;;;;;17.76;60.63;100391.06;4987078;28;19922;-38
2022/09/25 10:31:29;;;;;;;;;;;;;;;17.83;59.96;100396.09;5009514;28;19925;-39
2022/09/25 10:34:00;;;;;;;;;;;;;;;17.85;59.69;100396.03;4994814;28;19929;-37
2022/09/25 10:36:36;;;;;;;;;;;;;;;18.05;59.32;100396.94;5008902;28;20322;-37
2022/09/25 10:39:02;;;;;;;;;;;;;;;18.07;59.24;100395.03;4988693;28;20013;-37
2022/09/25 10:41:27;;;;;;;;;;;;;;;18.06;58.85;100390.66;4994987;28;19976;-38
2022/09/25 10:43:54;;;;;;;;;;;;;;;18.12;58.87;100389.53;5010691;28;19918;-36
2022/09/25 10:52:04;;;;;;;;;;;;;;;18.37;57.19;100391.09;5009104;28;19967;-37
2022/09/25 10:54:29;;;;;;;;;;;;;;;18.47;57.24;100384.38;4992315;28;19987;-37
2022/09/25 10:56:55;;;;;;;;;;;;;;;18.52;57.38;100387.72;5010694;28;20437;-39
2022/09/25 10:59:20;;;;;;;;;;;;;;;18.57;57.07;100393.69;5013291;28;20445;-37
2022/09/25 11:01:46;;;;;;;;;;;;;;;18.68;57.17;100395.84;4993505;28;19917;-39
2022/09/25 11:04:27;;;;;;;;;;;;;;;18.76;56.66;100371.44;5012979;28;19917;-38
2022/09/25 11:06:57;;;;;;;;;;;;;;;18.82;57.18;100379.16;5012547;28;20524;-38
2022/09/25 11:09:22;;;;;;;;;;;;;;;19.01;56.54;100372.03;5013558;28;19921;-37
2022/09/25 11:11:48;;;;;;;;;;;;;;;19.12;56.21;100376.88;5005317;28;19922;-38
2022/09/25 11:14:23;;;;;;;;;;;;;;;18.99;55.69;100380.13;4996458;28;20040;-37
2022/09/25 11:16:49;;;;;;;;;;;;;;;19.03;56.52;100378.16;5003721;28;20627;-38
2022/09/25 11:19:18;;;;;;;;;;;;;;;19.07;55.27;100364.63;4973744;28;19917;-38
2022/09/25 11:21:58;;;;;;;;;;;;;;;19.13;56.12;100367.91;5012799;28;20407;-37
2022/09/25 11:24:26;;;;;;;;;;;;;;;19.29;55.60;100363.53;5011865;28;19922;-37
2022/09/25 11:26:54;;;;;;;;;;;;;;;19.27;55.29;100365.41;5019781;28;19917;-38
2022/09/25 11:29:26;;;;;;;;;;;;;;;19.29;55.19;100365.34;4995025;28;19917;-37
2022/09/25 11:31:58;;;;;;;;;;;;;;;19.46;54.42;100361.81;5011230;28;19920;-40
2022/09/25 11:34:35;;;;;;;;;;;;;;;19.59;54.79;100354.88;5010433;28;19918;-38
2022/09/25 11:37:03;;;;;;;;;;;;;;;19.82;53.78;100360.84;5012772;28;19940;-38
2022/09/25 11:42:26;;;;;;;;;;;;;;;20.16;51.99;100365.34;5006752;28;20294;-39
2022/09/25 11:44:56;;;;;;;;;;;;;;;20.08;52.61;100358.59;4973197;28;20189;-39
2022/09/25 11:47:30;;;;;;;;;;;;;;;20.15;52.09;100359.13;4996715;28;19927;-40
2022/09/25 11:49:57;;;;;;;;;;;;;;;20.12;51.70;100362.84;5003188;28;19968;-38
2022/09/25 11:52:22;;;;;;;;;;;;;;;20.35;52.18;100357.16;4991471;28;20412;-37
2022/09/25 11:54:47;;;;;;;;;;;;;;;20.37;52.85;100361.47;5005790;28;19921;-37
2022/09/25 11:57:33;;;;;;;;;;;;;;;20.36;52.36;100351.72;5011919;28;20509;-38
2022/09/25 12:00:06;;;;;;;;;;;;;;;20.32;51.31;100347.50;5008804;28;19921;-39
2022/09/25 12:02:49;;;;;;;;;;;;;;;20.30;52.14;100338.66;5015257;28;19922;-38
2022/09/25 12:05:34;;;;;;;;;;;;;;;20.32;51.68;100336.78;5010565;28;19917;-38
2022/09/25 12:08:12;;;;;;;;;;;;;;;20.30;51.92;100335.16;5019376;28;19924;-37
2022/09/25 12:11:10;;;;;;;;;;;;;;;20.57;51.63;100324.66;5012187;28;19928;-37
2022/09/25 12:13:39;;;;;;;;;;;;;;;20.75;50.18;100332.63;4988978;28;20374;-38
2022/09/25 12:16:28;;;;;;;;;;;;;;;20.67;50.26;100325.00;5009159;28;20015;-38
2022/09/25 12:19:05;;;;;;;;;;;;;;;20.80;50.25;100324.31;5009259;28;19917;-38
2022/09/25 12:21:32;;;;;;;;;;;;;;;20.67;51.24;100319.66;5012158;28;19941;-37
2022/09/25 12:24:04;;;;;;;;;;;;;;;20.77;52.09;100328.03;5009040;28;19922;-38
2022/09/25 12:26:32;;;;;;;;;;;;;;;20.74;50.57;100320.19;4986640;28;20324;-39
2022/09/25 12:29:18;;;;;;;;;;;;;;;20.73;51.37;100318.44;5010204;28;19925;-39
2022/09/25 12:31:53;;;;;;;;;;;;;;;20.89;50.95;100307.72;5013842;28;19929;-38
2022/09/25 12:34:25;;;;;;;;;;;;;;;21.08;50.21;100312.88;5012178;28;19922;-38
2022/09/25 12:37:06;;;;;;;;;;;;;;;20.86;49.16;100314.09;5023990;28;19925;-38
2022/09/25 12:39:39;;;;;;;;;;;;;;;20.98;49.38;100303.66;5015863;28;20305;-39
2022/09/25 12:42:16;;;;;;;;;;;;;;;20.60;49.95;100308.44;5015985;28;20653;-39
2022/09/25 12:45:00;;;;;;;;;;;;;;;20.79;49.75;100318.09;5016425;28;19960;-38
2022/09/25 12:47:32;;;;;;;;;;;;;;;21.04;49.35;100308.63;5013732;28;20008;-38
2022/09/25 12:50:02;;;;;;;;;;;;;;;21.06;49.50;100309.41;5024206;28;19924;-37
2022/09/25 12:52:34;;;;;;;;;;;;;;;21.24;48.80;100311.97;5011390;28;19954;-39
2022/09/25 12:55:12;;;;;;;;;;;;;;;20.95;48.74;100306.50;5019884;28;19924;-37
2022/09/25 12:57:53;;;;;;;;;;;;;;;20.98;49.45;100300.97;4994071;28;20049;-38
2022/09/25 13:00:24;;;;;;;;;;;;;;;20.88;49.80;100300.63;5011809;28;20306;-37
2022/09/25 13:03:13;;;;;;;;;;;;;;;21.13;49.32;100294.69;4998340;28;19918;-37
2022/09/25 13:05:44;;;;;;;;;;;;;;;20.90;49.54;100301.41;5006624;28;19917;-38
2022/09/25 13:08:16;;;;;;;;;;;;;;;20.96;49.49;100292.13;5014757;28;19917;-39
2022/09/25 13:10:46;;;;;;;;;;;;;;;20.91;49.24;100288.88;5009321;28;19932;-39
2022/09/25 13:13:18;;;;;;;;;;;;;;;20.80;49.18;100287.66;5012604;28;20032;-37
2022/09/25 13:15:43;;;;;;;;;;;;;;;20.85;49.38;100293.63;5011891;28;19921;-37
2022/09/25 13:18:11;;;;;;;;;;;;;;;20.81;50.25;100289.38;5019588;28;20431;-40
2022/09/25 13:20:37;;;;;;;;;;;;;;;20.84;50.33;100289.19;5016703;28;19917;-37
2022/09/25 13:23:03;;;;;;;;;;;;;;;20.85;49.96;100293.63;5018358;28;19932;-39
2022/09/25 13:25:29;;;;;;;;;;;;;;;20.99;50.12;100289.28;4994228;28;19932;-38
2022/09/25 13:27:54;;;;;;;;;;;;;;;20.81;50.75;100283.16;4989344;28;19925;-38
2022/09/25 13:30:20;;;;;;;;;;;;;;;20.88;50.27;100290.78;5003593;28;20402;-39
2022/09/25 13:32:50;;;;;;;;;;;;;;;20.75;50.86;100284.38;5003733;28;19953;-39